createdAt,value
2022-12-05T00:01:23.817Z,37.33
2022-12-05T00:03:51.492Z,37.40
2022-12-05T00:06:18.412Z,46.08
2022-12-05T00:08:45.511Z,40.90
2022-12-05T00:11:13.377Z,39.53
2022-12-05T00:13:40.901Z,36.07
2022-12-05T00:16:08.564Z,37.00
2022-12-05T00:18:35.484Z,37.10
2022-12-05T00:21:02.002Z,38.67
2022-12-05T00:23:28.507Z,39.40
2022-12-05T00:25:55.038Z,38.87
2022-12-05T00:28:21.528Z,39.57
2022-12-05T00:30:48.040Z,37.60
2022-12-05T00:33:14.587Z,37.90
2022-12-05T00:35:41.083Z,38.63
2022-12-05T00:38:07.554Z,39.73
2022-12-05T00:40:35.663Z,37.97
2022-12-05T00:43:02.169Z,38.80
2022-12-05T00:45:28.704Z,40.47
2022-12-05T00:47:55.269Z,39.57
2022-12-05T00:50:21.781Z,40.40
2022-12-05T00:52:48.469Z,39.70
2022-12-05T00:55:15.139Z,38.17
2022-12-05T00:57:41.651Z,39.33
2022-12-05T01:00:08.513Z,40.30
2022-12-05T01:02:35.038Z,39.70
2022-12-05T01:05:01.564Z,38.67
2022-12-05T01:07:28.168Z,38.80
2022-12-05T01:09:54.805Z,39.13
2022-12-05T01:12:21.557Z,39.20
2022-12-05T01:14:48.070Z,40.47
2022-12-05T01:17:14.539Z,40.10
2022-12-05T01:19:41.171Z,39.33
2022-12-05T01:22:07.634Z,39.30
2022-12-05T01:24:34.202Z,39.07
2022-12-05T01:27:00.709Z,40.00
2022-12-05T01:29:27.326Z,39.33
2022-12-05T01:31:54.220Z,39.70
2022-12-05T01:34:21.082Z,39.07
2022-12-05T01:36:47.694Z,37.43
2022-12-05T01:39:14.796Z,38.43
2022-12-05T01:41:42.495Z,37.13
2022-12-05T01:44:11.775Z,38.53
2022-12-05T01:46:45.809Z,37.90
2022-12-05T01:49:20.901Z,37.37
2022-12-05T01:51:48.625Z,39.40
2022-12-05T01:54:15.781Z,37.70
2022-12-05T01:56:44.527Z,39.43
2022-12-05T01:59:11.711Z,38.20
2022-12-05T02:01:38.840Z,38.03
2022-12-05T02:04:05.853Z,44.85
2022-12-05T02:06:32.816Z,39.80
2022-12-05T02:08:59.646Z,37.43
2022-12-05T02:11:27.592Z,39.30
2022-12-05T02:14:09.272Z,38.03
2022-12-05T02:16:44.939Z,36.60
2022-12-05T02:19:23.359Z,37.30
2022-12-05T02:22:08.738Z,35.70
2022-12-05T02:24:35.226Z,35.90
2022-12-05T02:27:17.783Z,35.93
2022-12-05T02:29:47.244Z,33.97
2022-12-05T02:32:34.226Z,35.63
2022-12-05T02:35:06.496Z,34.57
2022-12-05T02:37:39.086Z,35.30
2022-12-05T02:40:11.067Z,33.30
2022-12-05T02:42:40.364Z,34.13
2022-12-05T02:45:09.970Z,33.27
2022-12-05T02:47:38.814Z,33.03
2022-12-05T02:50:06.833Z,33.33
2022-12-05T02:52:34.761Z,33.27
2022-12-05T02:55:01.533Z,32.50
2022-12-05T02:57:28.065Z,32.13
2022-12-05T02:59:54.661Z,31.23
2022-12-05T03:02:24.096Z,31.10
2022-12-05T03:04:50.582Z,31.40
2022-12-05T03:07:19.051Z,30.60
2022-12-05T03:09:51.496Z,30.63
2022-12-05T03:12:23.372Z,32.03
2022-12-05T03:14:57.199Z,30.23
2022-12-05T03:17:26.053Z,30.60
2022-12-05T03:20:06.462Z,30.17
2022-12-05T03:22:36.625Z,29.27
2022-12-05T03:25:03.906Z,29.40
2022-12-05T03:27:49.117Z,28.73
2022-12-05T03:30:20.160Z,28.40
2022-12-05T03:32:46.696Z,28.90
2022-12-05T03:35:22.817Z,29.30
2022-12-05T03:38:01.269Z,27.57
2022-12-05T03:40:28.201Z,28.47
2022-12-05T03:43:10.686Z,28.23
2022-12-05T03:45:56.245Z,28.93
2022-12-05T03:48:30.480Z,26.90
2022-12-05T03:50:58.459Z,26.73
2022-12-05T03:53:31.410Z,26.90
2022-12-05T03:56:02.228Z,28.33
2022-12-05T03:58:49.821Z,25.93
2022-12-05T04:01:18.199Z,26.43
2022-12-05T04:03:47.438Z,27.20
2022-12-05T04:06:34.918Z,25.43
2022-12-05T04:09:04.285Z,25.37
2022-12-05T04:11:33.161Z,26.70
2022-12-05T04:14:06.809Z,26.37
2022-12-05T04:17:03.763Z,27.07
2022-12-05T04:20:17.727Z,26.97
2022-12-05T04:22:44.563Z,25.73
2022-12-05T04:25:31.304Z,25.37
2022-12-05T04:28:21.530Z,25.53
2022-12-05T04:30:51.317Z,26.10
2022-12-05T04:33:23.606Z,25.60
2022-12-05T04:36:02.719Z,25.93
2022-12-05T04:38:47.795Z,26.53
2022-12-05T04:41:16.970Z,25.13
2022-12-05T04:43:45.066Z,26.77
2022-12-05T04:46:13.508Z,26.83
2022-12-05T04:48:41.796Z,26.20
2022-12-05T04:51:09.798Z,26.57
2022-12-05T04:53:36.410Z,25.67
2022-12-05T04:56:04.397Z,26.80
2022-12-05T04:58:31.795Z,26.23
2022-12-05T05:00:58.280Z,26.43
2022-12-05T05:03:27.572Z,25.63
2022-12-05T05:05:54.828Z,25.67
2022-12-05T05:08:23.014Z,26.00
2022-12-05T05:10:55.838Z,25.10
2022-12-05T05:13:22.329Z,26.17
2022-12-05T05:15:48.921Z,25.13
2022-12-05T05:18:15.493Z,24.80
2022-12-05T05:20:42.028Z,25.10
2022-12-05T05:23:08.614Z,25.20
2022-12-05T05:25:35.122Z,25.20
2022-12-05T05:28:01.715Z,26.30
2022-12-05T05:30:28.308Z,25.27
2022-12-05T05:32:54.818Z,25.13
2022-12-05T05:35:21.746Z,25.20
2022-12-05T05:37:48.371Z,25.03
2022-12-05T05:40:14.971Z,24.17
2022-12-05T05:42:42.588Z,25.60
2022-12-05T05:45:09.570Z,25.53
2022-12-05T05:47:36.081Z,24.13
2022-12-05T05:50:02.636Z,26.70
2022-12-05T05:52:29.121Z,25.90
2022-12-05T05:54:55.651Z,23.87
2022-12-05T05:57:22.141Z,26.93
2022-12-05T05:59:48.625Z,25.50
2022-12-05T06:02:15.139Z,25.87
2022-12-05T06:04:41.636Z,27.27
2022-12-05T06:07:08.217Z,26.57
2022-12-05T06:09:34.779Z,26.40
2022-12-05T06:12:01.332Z,26.37
2022-12-05T06:14:28.069Z,25.37
2022-12-05T06:16:54.650Z,26.10
2022-12-05T06:19:21.240Z,26.60
2022-12-05T06:21:48.888Z,25.17
2022-12-05T06:24:15.343Z,25.60
2022-12-05T06:26:42.035Z,26.53
2022-12-05T06:29:08.539Z,25.90
2022-12-05T06:31:35.507Z,24.93
2022-12-05T06:34:05.262Z,24.00
2022-12-05T06:36:31.810Z,23.97
2022-12-05T06:38:58.763Z,25.10
2022-12-05T06:41:25.385Z,23.83
2022-12-05T06:43:56.213Z,24.57
2022-12-05T06:46:26.112Z,25.90
2022-12-05T06:48:53.833Z,25.80
2022-12-05T06:51:20.510Z,26.00
2022-12-05T06:53:47.173Z,26.50
2022-12-05T06:56:14.908Z,25.23
2022-12-05T06:58:42.151Z,26.10
2022-12-05T07:01:33.936Z,25.53
2022-12-05T07:04:00.736Z,24.60
2022-12-05T07:06:27.684Z,26.37
2022-12-05T07:08:54.230Z,23.93
2022-12-05T07:11:21.113Z,25.30
2022-12-05T07:13:47.621Z,26.10
2022-12-05T07:16:14.209Z,25.30
2022-12-05T07:18:40.883Z,26.80
2022-12-05T07:21:12.967Z,27.80
2022-12-05T07:23:40.584Z,26.93
2022-12-05T07:26:08.170Z,26.70
2022-12-05T07:28:34.680Z,25.90
2022-12-05T07:31:01.584Z,26.57
2022-12-05T07:33:28.445Z,26.97
2022-12-05T07:36:05.796Z,26.20
2022-12-05T07:38:32.408Z,25.93
2022-12-05T07:40:58.962Z,27.50
2022-12-05T07:43:25.595Z,26.63
2022-12-05T07:45:52.102Z,27.67
2022-12-05T07:48:19.139Z,27.13
2022-12-05T07:50:45.963Z,29.67
2022-12-05T07:53:12.483Z,27.20
2022-12-05T07:55:39.254Z,28.80
2022-12-05T07:58:05.951Z,28.47
2022-12-05T08:00:32.495Z,27.70
2022-12-05T08:02:59.128Z,28.47
2022-12-05T08:05:25.751Z,26.60
2022-12-05T08:07:52.332Z,27.87
2022-12-05T08:10:18.906Z,28.23
2022-12-05T08:12:45.425Z,29.23
2022-12-05T08:15:11.992Z,28.83
2022-12-05T08:17:38.787Z,29.70
2022-12-05T08:20:05.614Z,28.40
2022-12-05T08:22:32.089Z,28.40
2022-12-05T08:24:58.653Z,28.93
2022-12-05T08:27:25.200Z,28.60
2022-12-05T08:29:53.507Z,28.97
2022-12-05T08:32:20.035Z,28.40
2022-12-05T08:34:46.535Z,28.87
2022-12-05T08:37:13.041Z,30.43
2022-12-05T08:39:39.546Z,30.70
2022-12-05T08:42:06.061Z,30.27
2022-12-05T08:44:32.545Z,30.10
2022-12-05T08:46:59.123Z,29.90
2022-12-05T08:49:25.605Z,30.03
2022-12-05T08:51:52.088Z,30.37
2022-12-05T08:54:18.715Z,32.23
2022-12-05T08:56:45.255Z,32.83
2022-12-05T08:59:11.886Z,31.50
2022-12-05T09:01:39.358Z,31.40
2022-12-05T09:04:06.869Z,31.87
2022-12-05T09:06:34.816Z,30.97
2022-12-05T09:09:06.932Z,31.73
2022-12-05T09:11:34.839Z,31.73
2022-12-05T09:14:01.954Z,30.60
2022-12-05T09:16:35.183Z,31.33
2022-12-05T09:19:07.116Z,32.13
2022-12-05T09:21:33.696Z,32.50
2022-12-05T09:24:00.499Z,31.57
2022-12-05T09:26:27.862Z,30.13
2022-12-05T09:28:54.373Z,32.03
2022-12-05T09:31:22.329Z,35.70
2022-12-05T09:33:49.568Z,32.87
2022-12-05T09:36:19.021Z,33.53
2022-12-05T09:38:45.684Z,33.20
2022-12-05T09:41:48.587Z,33.70
2022-12-05T09:44:26.933Z,32.83
2022-12-05T09:47:11.852Z,32.57
2022-12-05T09:49:42.310Z,32.30
2022-12-05T09:52:16.001Z,30.90
2022-12-05T09:54:42.483Z,32.77
2022-12-05T09:57:10.391Z,31.77
2022-12-05T09:59:36.921Z,32.77
2022-12-05T10:02:11.653Z,34.23
2022-12-05T10:04:39.140Z,32.87
2022-12-05T10:07:11.896Z,33.10
2022-12-05T10:09:56.357Z,32.70
2022-12-05T10:12:31.721Z,32.27
2022-12-05T10:15:17.102Z,33.13
2022-12-05T10:18:01.003Z,34.87
2022-12-05T10:20:34.340Z,33.43
2022-12-05T10:23:03.799Z,34.00
2022-12-05T10:25:32.196Z,34.33
2022-12-05T10:28:00.592Z,33.13
2022-12-05T10:30:29.424Z,33.60
2022-12-05T10:33:01.801Z,34.77
2022-12-05T10:35:34.932Z,34.53
2022-12-05T10:38:06.772Z,33.00
2022-12-05T10:40:37.766Z,34.33
2022-12-05T10:43:08.898Z,32.90
2022-12-05T10:45:43.442Z,35.03
2022-12-05T10:48:11.847Z,35.30
2022-12-05T10:50:38.766Z,35.37
2022-12-05T10:53:06.224Z,34.87
2022-12-05T10:55:59.929Z,35.37
2022-12-05T10:58:30.005Z,35.50
2022-12-05T11:00:57.349Z,35.13
2022-12-05T11:03:32.945Z,35.50
2022-12-05T11:06:00.996Z,33.17
2022-12-05T11:08:56.040Z,35.07
2022-12-05T11:11:23.353Z,34.50
2022-12-05T11:13:57.875Z,35.33
2022-12-05T11:16:25.473Z,34.93
2022-12-05T11:18:53.221Z,35.40
2022-12-05T11:21:20.821Z,34.03
2022-12-05T11:23:47.866Z,35.90
2022-12-05T11:26:34.704Z,36.00
2022-12-05T11:29:01.613Z,35.00
2022-12-05T11:31:29.800Z,34.90
2022-12-05T11:34:11.757Z,36.40
2022-12-05T11:36:43.694Z,34.97
2022-12-05T11:39:12.724Z,34.30
2022-12-05T11:41:45.475Z,34.00
2022-12-05T11:44:17.880Z,36.63
2022-12-05T11:46:53.801Z,35.63
2022-12-05T11:49:29.435Z,38.00
2022-12-05T11:52:04.264Z,39.73
2022-12-05T11:57:34.466Z,38.17
2022-12-05T12:00:01.057Z,35.63
2022-12-05T12:02:27.681Z,32.30
2022-12-05T12:05:13.072Z,38.73
2022-12-05T12:07:45.950Z,34.63
2022-12-05T12:10:12.576Z,35.97
2022-12-05T12:12:48.469Z,37.13
2022-12-05T12:15:18.320Z,36.57
2022-12-05T12:17:50.134Z,34.47
2022-12-05T12:20:16.640Z,35.83
2022-12-05T12:22:55.461Z,33.50
2022-12-05T12:25:27.949Z,35.33
2022-12-05T12:28:20.555Z,36.70
2022-12-05T12:30:47.071Z,34.70
2022-12-05T12:33:16.538Z,34.47
2022-12-05T12:35:53.496Z,35.10
2022-12-05T12:38:23.063Z,33.47
2022-12-05T12:41:07.977Z,34.97
2022-12-05T12:43:54.637Z,33.30
2022-12-05T12:46:30.578Z,36.53
2022-12-05T12:49:02.893Z,34.77
2022-12-05T12:51:31.198Z,36.47
2022-12-05T12:53:57.799Z,33.60
2022-12-05T12:56:24.307Z,33.17
2022-12-05T12:58:54.033Z,37.40
2022-12-05T13:01:23.416Z,34.67
2022-12-05T13:03:55.349Z,33.57
2022-12-05T13:06:28.703Z,33.97
2022-12-05T13:08:57.474Z,36.13
2022-12-05T13:11:24.900Z,36.13
2022-12-05T13:13:53.478Z,35.03
2022-12-05T13:16:32.067Z,34.30
2022-12-05T13:18:58.796Z,34.13
2022-12-05T13:21:26.083Z,32.67
2022-12-05T13:23:55.834Z,34.73
2022-12-05T13:26:23.946Z,34.70
2022-12-05T13:28:53.397Z,35.87
2022-12-05T13:31:34.237Z,35.70
2022-12-05T13:34:00.825Z,34.47
2022-12-05T13:36:45.830Z,32.30
2022-12-05T13:39:33.996Z,41.60
2022-12-05T13:42:15.946Z,36.73
2022-12-05T13:44:44.804Z,38.37
2022-12-05T13:47:23.902Z,37.37
2022-12-05T13:49:55.992Z,33.77
2022-12-05T13:52:26.311Z,31.70
2022-12-05T13:55:06.591Z,32.37
2022-12-05T13:57:53.382Z,32.30
2022-12-05T14:00:23.108Z,38.53
2022-12-05T14:02:51.375Z,35.13
2022-12-05T14:05:20.756Z,38.17
2022-12-05T14:07:50.092Z,35.77
2022-12-05T14:10:20.714Z,34.67
2022-12-05T14:12:51.160Z,37.57
2022-12-05T14:15:28.909Z,35.60
2022-12-05T14:18:14.393Z,34.87
2022-12-05T14:20:48.381Z,31.47
2022-12-05T14:23:21.036Z,34.83
2022-12-05T14:25:57.682Z,34.83
2022-12-05T14:28:41.063Z,30.93
2022-12-05T14:31:07.575Z,30.83
2022-12-05T14:33:34.245Z,31.33
2022-12-05T14:36:08.333Z,33.83
2022-12-05T14:38:36.697Z,31.10
2022-12-05T14:41:17.412Z,31.03
2022-12-05T14:43:44.155Z,30.40
2022-12-05T14:46:22.821Z,32.23
2022-12-05T14:48:49.625Z,31.97
2022-12-05T14:51:31.500Z,31.60
2022-12-05T14:54:04.745Z,29.83
2022-12-05T14:56:33.040Z,28.97
2022-12-05T14:58:59.535Z,29.07
2022-12-05T15:01:27.798Z,28.30
2022-12-05T15:04:00.272Z,29.60
2022-12-05T15:06:27.101Z,28.77
2022-12-05T15:09:04.582Z,27.57
2022-12-05T15:11:41.917Z,27.20
2022-12-05T15:14:08.360Z,28.13
2022-12-05T15:16:38.497Z,29.27
2022-12-05T15:19:07.285Z,28.47
2022-12-05T15:21:36.448Z,25.67
2022-12-05T15:24:06.459Z,27.23
2022-12-05T15:26:48.440Z,28.23
2022-12-05T15:29:17.523Z,26.83
2022-12-05T15:31:48.587Z,28.73
2022-12-05T15:34:35.340Z,27.83
2022-12-05T15:37:10.710Z,29.73
2022-12-05T15:40:09.498Z,28.50
2022-12-05T15:42:35.986Z,26.87
2022-12-05T15:45:12.273Z,27.33
2022-12-05T15:47:39.122Z,27.30
2022-12-05T15:50:06.057Z,28.00
2022-12-05T15:52:41.957Z,27.87
2022-12-05T15:55:12.613Z,27.03
2022-12-05T15:57:47.468Z,27.13
2022-12-05T16:00:15.997Z,27.13
2022-12-05T16:02:53.566Z,27.57
2022-12-05T16:05:32.980Z,29.20
2022-12-05T16:08:01.545Z,27.47
2022-12-05T16:10:29.848Z,29.27
2022-12-05T16:13:02.520Z,27.17
2022-12-05T16:15:29.051Z,26.10
2022-12-05T16:17:57.434Z,27.23
2022-12-05T16:20:34.823Z,25.70
2022-12-05T16:23:04.497Z,25.57
2022-12-05T16:25:37.025Z,24.73
2022-12-05T16:28:11.220Z,25.90
2022-12-05T16:30:38.073Z,26.40
2022-12-05T16:33:06.388Z,25.00
2022-12-05T16:35:37.718Z,25.27
2022-12-05T16:38:05.351Z,23.83
2022-12-05T16:40:31.872Z,24.67
2022-12-05T16:43:05.525Z,24.40
2022-12-05T16:45:42.655Z,23.60
2022-12-05T16:48:25.819Z,23.70
2022-12-05T16:50:53.805Z,22.23
2022-12-05T16:53:22.061Z,23.10
2022-12-05T16:55:49.176Z,22.67
2022-12-05T16:58:19.884Z,23.93
2022-12-05T17:00:46.386Z,24.07
2022-12-05T17:03:33.510Z,24.07
2022-12-05T17:06:00.156Z,21.47
2022-12-05T17:08:26.768Z,22.93
2022-12-05T17:10:53.474Z,22.67
2022-12-05T17:13:20.148Z,20.97
2022-12-05T17:15:46.718Z,21.93
2022-12-05T17:18:14.157Z,22.47
2022-12-05T17:20:41.471Z,22.30
2022-12-05T17:23:11.109Z,22.00
2022-12-05T17:25:38.513Z,20.53
2022-12-05T17:28:04.984Z,22.00
2022-12-05T17:30:34.245Z,22.67
2022-12-05T17:33:01.643Z,21.50
2022-12-05T17:35:28.793Z,21.73
2022-12-05T17:37:55.318Z,21.10
2022-12-05T17:40:21.848Z,21.77
2022-12-05T17:42:48.709Z,21.27
2022-12-05T17:45:16.104Z,21.37
2022-12-05T17:47:43.269Z,22.00
2022-12-05T17:50:14.233Z,21.63
2022-12-05T17:52:40.914Z,21.83
2022-12-05T17:55:12.304Z,20.33
2022-12-05T17:57:38.807Z,19.63
2022-12-05T18:00:05.741Z,19.80
2022-12-05T18:02:34.165Z,19.77
2022-12-05T18:05:00.924Z,19.67
2022-12-05T18:07:27.597Z,19.90
2022-12-05T18:09:54.130Z,20.13
2022-12-05T18:12:20.606Z,19.97
2022-12-05T18:14:47.232Z,19.60
2022-12-05T18:17:13.703Z,19.97
2022-12-05T18:19:40.201Z,19.73
2022-12-05T18:22:06.724Z,18.73
2022-12-05T18:24:33.254Z,18.93
2022-12-05T18:26:59.773Z,18.23
2022-12-05T18:29:26.293Z,18.87
2022-12-05T18:31:52.825Z,18.57
2022-12-05T18:34:19.356Z,17.97
2022-12-05T18:36:45.916Z,17.37
2022-12-05T18:39:14.600Z,18.83
2022-12-05T18:41:41.915Z,16.87
2022-12-05T18:44:09.918Z,17.03
2022-12-05T18:46:37.316Z,17.10
2022-12-05T18:49:05.567Z,16.63
2022-12-05T18:51:32.111Z,16.10
2022-12-05T18:53:58.660Z,15.93
2022-12-05T18:56:26.928Z,16.57
2022-12-05T18:58:54.870Z,16.47
2022-12-05T19:01:21.540Z,15.83
2022-12-05T19:03:49.106Z,16.30
2022-12-05T19:06:16.961Z,16.23
2022-12-05T19:08:47.057Z,17.10
2022-12-05T19:11:14.678Z,14.87
2022-12-05T19:13:41.265Z,15.63
2022-12-05T19:16:09.155Z,16.53
2022-12-05T19:18:35.880Z,16.90
2022-12-05T19:21:02.749Z,15.67
2022-12-05T19:23:31.912Z,15.27
2022-12-05T19:26:02.344Z,14.63
2022-12-05T19:28:29.141Z,14.37
2022-12-05T19:31:02.926Z,14.73
2022-12-05T19:33:36.675Z,14.07
2022-12-05T19:36:07.848Z,14.17
2022-12-05T19:38:34.967Z,14.17
2022-12-05T19:41:02.272Z,13.73
2022-12-05T19:43:29.956Z,13.87
2022-12-05T19:45:57.053Z,13.10
2022-12-05T19:48:24.150Z,13.30
2022-12-05T19:50:54.621Z,12.00
2022-12-05T19:53:21.221Z,12.17
2022-12-05T19:55:47.703Z,12.93
2022-12-05T19:58:14.235Z,16.02
2022-12-05T20:00:41.219Z,13.87
2022-12-05T20:03:11.970Z,13.80
2022-12-05T20:05:38.987Z,13.53
2022-12-05T20:08:05.593Z,12.93
2022-12-05T20:10:33.568Z,12.77
2022-12-05T20:13:02.649Z,12.30
2022-12-05T20:15:32.730Z,13.30
2022-12-05T20:17:59.366Z,12.77
2022-12-05T20:20:25.975Z,13.03
2022-12-05T20:22:53.645Z,13.07
2022-12-05T20:25:20.381Z,13.27
2022-12-05T20:27:46.989Z,12.73
2022-12-05T20:30:13.536Z,12.53
2022-12-05T20:32:40.765Z,13.53
2022-12-05T20:35:07.775Z,13.87
2022-12-05T20:37:35.749Z,17.10
2022-12-05T20:40:02.441Z,16.43
2022-12-05T20:42:29.107Z,15.37
2022-12-05T20:44:55.654Z,13.40
2022-12-05T20:47:22.263Z,13.03
2022-12-05T20:49:48.917Z,14.73
2022-12-05T20:52:15.476Z,15.60
2022-12-05T20:54:42.199Z,15.30
2022-12-05T20:57:08.841Z,16.33
2022-12-05T20:59:35.357Z,14.87
2022-12-05T21:02:01.981Z,14.73
2022-12-05T21:04:28.792Z,13.67
2022-12-05T21:06:56.263Z,12.53
2022-12-05T21:09:30.370Z,12.73
2022-12-05T21:11:58.011Z,12.83
2022-12-05T21:14:24.696Z,12.87
2022-12-05T21:16:53.179Z,13.00
2022-12-05T21:19:20.667Z,13.47
2022-12-05T21:21:49.105Z,21.13
2022-12-05T21:24:15.846Z,20.97
2022-12-05T21:26:42.575Z,16.47
2022-12-05T21:29:10.519Z,16.07
2022-12-05T21:31:39.473Z,15.30
2022-12-05T21:34:08.134Z,15.00
2022-12-05T21:36:35.575Z,12.83
2022-12-05T21:39:02.211Z,13.60
2022-12-05T21:41:28.772Z,14.00
2022-12-05T21:43:56.021Z,13.17
2022-12-05T21:46:26.055Z,12.33
2022-12-05T21:48:53.086Z,12.43
2022-12-05T21:51:20.217Z,13.23
2022-12-05T21:53:46.836Z,13.70
2022-12-05T21:56:15.964Z,13.37
2022-12-05T21:58:43.393Z,13.50
2022-12-05T22:01:17.499Z,12.80
2022-12-05T22:03:44.634Z,12.83
2022-12-05T22:06:12.578Z,12.30
2022-12-05T22:08:39.186Z,11.97
2022-12-05T22:11:05.766Z,12.07
2022-12-05T22:13:32.703Z,12.37
2022-12-05T22:15:59.714Z,11.50
2022-12-05T22:18:26.651Z,11.43
2022-12-05T22:20:57.196Z,11.63
2022-12-05T22:23:23.909Z,11.37
2022-12-05T22:26:00.801Z,10.83
2022-12-05T22:28:28.319Z,10.80
2022-12-05T22:30:55.739Z,10.30
2022-12-05T22:33:22.452Z,11.20
2022-12-05T22:35:52.612Z,10.90
2022-12-05T22:38:19.519Z,10.83
2022-12-05T22:40:46.131Z,10.73
2022-12-05T22:43:13.037Z,11.37
2022-12-05T22:45:39.868Z,10.60
2022-12-05T22:48:06.354Z,10.97
2022-12-05T22:50:33.263Z,10.53
2022-12-05T22:53:00.090Z,10.47
2022-12-05T22:55:26.733Z,10.07
2022-12-05T22:57:53.595Z,10.73
2022-12-05T23:00:20.591Z,9.67
2022-12-05T23:02:47.167Z,10.23
2022-12-05T23:05:13.782Z,9.40
2022-12-05T23:07:41.143Z,9.70
2022-12-05T23:10:08.112Z,10.30
2022-12-05T23:12:34.823Z,10.30
2022-12-05T23:15:01.332Z,10.03
2022-12-05T23:17:27.819Z,10.40
2022-12-05T23:19:54.340Z,9.57
2022-12-05T23:22:20.836Z,10.03
2022-12-05T23:24:47.378Z,9.40
2022-12-05T23:27:13.913Z,10.40
2022-12-05T23:29:40.429Z,9.73
2022-12-05T23:32:06.977Z,9.77
2022-12-05T23:34:33.493Z,9.30
2022-12-05T23:37:01.564Z,10.33
2022-12-05T23:39:28.058Z,10.10
2022-12-05T23:41:54.567Z,9.43
2022-12-05T23:44:21.426Z,9.40
2022-12-05T23:46:47.987Z,9.50
2022-12-05T23:49:14.582Z,8.97
2022-12-05T23:51:41.126Z,9.70
2022-12-05T23:54:09.592Z,9.40
2022-12-05T23:56:36.257Z,9.10
2022-12-05T23:59:03.888Z,8.30
